Time;durP1;ratioP1;P1;durP2;ratioP2;P2;SDS_P1;SDS_P2;PMS_P1;PMS_P2;Temp;Humidity;BMP_temperature;BMP_pressure;BME280_temperature;BME280_humidity;BME280_pressure;Samples;Min_cycle;Max_cycle;Signal;HPM_P1;HPM_P2
2022/02/23 00:01:13;;;;;;;4.78;3.45;;;5.30;99.90;;;;;;5058481;28;20257;-53
2022/02/23 00:03:41;;;;;;;4.25;3.25;;;5.30;99.90;;;;;;5059377;28;20269;-52
2022/02/23 00:06:09;;;;;;;11.48;2.90;;;5.30;99.90;;;;;;5059011;28;20543;-49
2022/02/23 00:08:38;;;;;;;6.30;3.60;;;5.20;99.90;;;;;;5059286;28;20199;-49
2022/02/23 00:11:06;;;;;;;4.00;3.17;;;5.20;99.90;;;;;;5058598;28;20257;-50
2022/02/23 00:13:34;;;;;;;6.15;3.45;;;5.20;99.90;;;;;;5059453;28;20206;-51
2022/02/23 00:16:01;;;;;;;9.20;4.03;;;5.20;99.90;;;;;;5058761;28;20249;-48
2022/02/23 00:18:28;;;;;;;10.35;4.68;;;5.20;99.90;;;;;;5059215;28;20502;-54
2022/02/23 00:20:55;;;;;;;9.75;4.40;;;5.10;99.90;;;;;;5058701;28;20288;-53
2022/02/23 00:23:22;;;;;;;11.70;3.95;;;5.00;99.90;;;;;;5056379;28;20237;-46
2022/02/23 00:25:50;;;;;;;10.18;3.70;;;5.00;99.90;;;;;;5059002;28;20206;-50
2022/02/23 00:28:17;;;;;;;6.70;3.92;;;4.90;99.90;;;;;;5058444;28;20396;-54
2022/02/23 00:30:44;;;;;;;3.97;3.58;;;4.90;99.90;;;;;;5059070;28;20649;-54
2022/02/23 00:33:12;;;;;;;6.05;3.97;;;4.80;99.90;;;;;;5058652;28;20207;-46
2022/02/23 00:35:39;;;;;;;5.07;4.13;;;4.80;99.90;;;;;;5059005;28;20199;-48
2022/02/23 00:38:07;;;;;;;9.18;4.00;;;4.90;99.90;;;;;;5059360;28;20196;-48
2022/02/23 00:40:34;;;;;;;7.05;3.65;;;4.90;99.90;;;;;;5059444;28;20221;-45
2022/02/23 00:43:06;;;;;;;10.02;4.35;;;4.80;99.90;;;;;;5059949;28;20192;-47
2022/02/23 00:45:34;;;;;;;6.15;4.03;;;4.80;99.90;;;;;;5056068;28;20503;-46
2022/02/23 00:48:01;;;;;;;7.28;4.38;;;4.80;99.90;;;;;;5058324;28;20233;-48
2022/02/23 00:50:29;;;;;;;10.80;5.38;;;4.90;99.90;;;;;;5058747;28;20256;-49
2022/02/23 00:52:56;;;;;;;8.65;4.90;;;4.90;99.90;;;;;;5058358;28;20210;-47
2022/02/23 00:55:23;;;;;;;22.20;5.57;;;4.90;99.90;;;;;;5055792;28;20561;-49
2022/02/23 00:57:52;;;;;;;7.63;4.03;;;5.00;99.90;;;;;;5058840;28;20283;-45
2022/02/23 01:00:19;;;;;;;11.32;3.90;;;5.00;99.90;;;;;;5057798;28;20280;-50
2022/02/23 01:02:46;;;;;;;8.30;4.32;;;4.90;99.90;;;;;;5058597;28;20237;-47
2022/02/23 01:05:14;;;;;;;13.20;4.85;;;4.80;99.90;;;;;;5057742;28;20203;-46
2022/02/23 01:07:41;;;;;;;7.10;4.30;;;4.80;99.90;;;;;;5057946;28;20223;-47
2022/02/23 01:10:09;;;;;;;4.80;4.20;;;4.80;99.90;;;;;;5058133;28;20423;-47
2022/02/23 01:12:36;;;;;;;7.03;4.45;;;4.80;99.90;;;;;;5058638;28;20524;-51
2022/02/23 01:15:06;;;;;;;5.80;4.10;;;4.80;99.90;;;;;;5058448;28;20257;-48
2022/02/23 01:17:34;;;;;;;5.50;3.53;;;4.80;99.90;;;;;;5058468;28;20250;-47
2022/02/23 01:20:02;;;;;;;6.13;4.30;;;4.90;99.90;;;;;;5058047;28;20290;-47
2022/02/23 01:22:29;;;;;;;8.57;5.85;;;4.90;99.90;;;;;;5058204;28;20217;-44
2022/02/23 01:25:00;;;;;;;12.95;4.25;;;4.90;99.90;;;;;;5058288;28;20532;-52
2022/02/23 01:27:27;;;;;;;4.60;4.15;;;5.00;99.90;;;;;;5058539;28;20511;-44
2022/02/23 01:29:56;;;;;;;4.78;4.00;;;5.00;99.90;;;;;;5058307;28;20382;-47
2022/02/23 01:32:25;;;;;;;8.70;4.60;;;4.90;99.90;;;;;;5056157;28;20289;-46
2022/02/23 01:34:53;;;;;;;6.70;4.03;;;5.10;99.90;;;;;;5058596;28;20423;-48
2022/02/23 01:37:20;;;;;;;4.82;3.97;;;5.00;99.90;;;;;;5057956;28;20599;-47
2022/02/23 01:39:49;;;;;;;4.38;3.95;;;5.00;99.90;;;;;;5058465;28;20279;-48
2022/02/23 01:42:17;;;;;;;6.30;4.32;;;5.10;99.90;;;;;;5058064;28;20358;-47
2022/02/23 01:44:44;;;;;;;5.18;2.80;;;5.20;99.90;;;;;;5058074;28;20241;-49
2022/02/23 01:47:12;;;;;;;12.43;4.93;;;5.30;99.90;;;;;;5058105;28;20292;-45
2022/02/23 01:49:39;;;;;;;7.10;4.20;;;5.30;99.90;;;;;;5058132;28;20210;-48
2022/02/23 01:52:09;;;;;;;6.68;3.95;;;5.20;99.90;;;;;;5058070;28;20215;-48
2022/02/23 01:54:36;;;;;;;5.57;3.72;;;5.20;99.90;;;;;;5058130;28;20242;-44
2022/02/23 01:57:04;;;;;;;5.10;4.47;;;5.20;99.90;;;;;;5058341;28;20210;-52
2022/02/23 01:59:32;;;;;;;5.85;3.97;;;5.20;99.90;;;;;;5062079;28;20207;-45
2022/02/23 02:01:59;;;;;;;4.28;3.55;;;5.30;99.90;;;;;;5061823;28;20541;-47
2022/02/23 02:04:27;;;;;;;6.40;4.43;;;5.30;99.90;;;;;;5061299;28;20485;-46
2022/02/23 02:06:54;;;;;;;4.93;3.78;;;5.30;99.90;;;;;;5061875;28;20272;-49
2022/02/23 02:09:21;;;;;;;4.47;3.60;;;5.40;99.90;;;;;;5061258;28;20325;-45
2022/02/23 02:11:48;;;;;;;3.85;3.15;;;5.30;99.90;;;;;;5060982;28;20215;-46
2022/02/23 02:14:15;;;;;;;3.60;3.05;;;5.20;99.90;;;;;;5061332;28;20245;-47
2022/02/23 02:16:42;;;;;;;6.18;3.50;;;5.30;99.90;;;;;;5061407;28;20532;-53
2022/02/23 02:19:09;;;;;;;4.78;3.40;;;5.40;99.90;;;;;;5059549;28;20257;-47
2022/02/23 02:22:03;;;;;;;3.20;3.00;;;5.40;99.90;;;;;;5061176;28;20306;-48
2022/02/23 02:24:37;;;;;;;2.65;2.45;;;5.30;99.90;;;;;;5061576;28;20219;-47
2022/02/23 02:27:13;;;;;;;3.30;2.60;;;5.30;99.90;;;;;;5061256;28;21027;-48
2022/02/23 02:29:42;;;;;;;6.13;3.53;;;5.40;99.90;;;;;;5062246;28;20195;-44
2022/02/23 02:32:11;;;;;;;7.03;2.58;;;5.40;99.90;;;;;;5059565;28;20215;-51
2022/02/23 02:34:39;;;;;;;3.50;2.10;;;5.50;99.90;;;;;;5061326;28;20236;-50
2022/02/23 02:37:06;;;;;;;7.10;3.28;;;5.50;99.90;;;;;;5059635;28;20277;-49
2022/02/23 02:39:34;;;;;;;4.60;2.80;;;5.50;99.90;;;;;;5061201;28;20556;-51
2022/02/23 02:42:05;;;;;;;2.10;1.90;;;5.40;99.90;;;;;;5059881;28;20242;-48
2022/02/23 02:44:33;;;;;;;2.17;2.00;;;5.50;99.90;;;;;;5060989;28;20199;-51
2022/02/23 02:47:00;;;;;;;2.50;1.70;;;5.50;99.90;;;;;;5060860;28;20227;-48
2022/02/23 02:49:28;;;;;;;2.33;2.13;;;5.50;99.90;;;;;;5060763;28;20228;-49
2022/02/23 02:51:55;;;;;;;2.20;1.80;;;5.50;99.90;;;;;;5060896;28;20452;-50
2022/02/23 02:54:23;;;;;;;2.17;1.60;;;5.50;99.90;;;;;;5060344;28;20295;-47
2022/02/23 02:56:50;;;;;;;1.75;1.50;;;5.60;99.90;;;;;;5060932;28;20256;-45
2022/02/23 02:59:18;;;;;;;2.15;1.98;;;5.60;99.90;;;;;;5060283;28;20253;-48
2022/02/23 03:01:46;;;;;;;7.40;2.72;;;5.70;99.90;;;;;;5060713;28;20269;-49
2022/02/23 03:04:13;;;;;;;2.90;2.40;;;5.70;99.90;;;;;;5044276;28;20379;-51
2022/02/23 03:06:41;;;;;;;3.95;1.48;;;5.70;99.90;;;;;;5062657;28;20247;-46
2022/02/23 03:09:08;;;;;;;3.55;2.17;;;5.80;99.90;;;;;;5060945;28;20257;-52
2022/02/23 03:11:36;;;;;;;2.53;1.95;;;5.80;99.90;;;;;;5060147;28;20223;-45
2022/02/23 03:14:03;;;;;;;3.60;2.25;;;5.80;99.90;;;;;;5060097;28;20253;-47
2022/02/23 03:16:30;;;;;;;2.38;2.17;;;5.80;99.90;;;;;;5060304;28;20391;-46
2022/02/23 03:18:57;;;;;;;3.78;1.85;;;5.80;99.90;;;;;;5060429;28;20196;-49
2022/02/23 03:21:25;;;;;;;2.00;1.80;;;5.90;99.90;;;;;;5057621;28;20414;-49
2022/02/23 03:23:52;;;;;;;1.88;1.73;;;5.90;99.90;;;;;;5061050;28;20199;-44
2022/02/23 03:26:19;;;;;;;2.78;1.90;;;6.10;99.90;;;;;;5059480;28;20211;-48
2022/02/23 03:28:46;;;;;;;3.05;2.28;;;6.10;99.90;;;;;;5057265;28;20223;-46
2022/02/23 03:31:14;;;;;;;3.13;2.17;;;6.10;99.90;;;;;;5059669;28;20227;-49
2022/02/23 03:33:42;;;;;;;2.65;2.05;;;6.10;99.90;;;;;;5060187;28;20226;-48
2022/02/23 03:36:11;;;;;;;3.50;2.10;;;6.10;99.90;;;;;;5058043;28;20244;-50
2022/02/23 03:38:39;;;;;;;4.05;2.00;;;6.10;99.90;;;;;;5059741;28;20207;-50
2022/02/23 03:41:07;;;;;;;2.42;2.22;;;6.10;99.90;;;;;;5059833;28;20257;-48
2022/02/23 03:43:36;;;;;;;5.97;1.90;;;6.10;99.90;;;;;;5059936;28;20199;-51
2022/02/23 03:46:04;;;;;;;1.85;1.30;;;6.10;99.90;;;;;;5059711;28;20200;-47
2022/02/23 03:48:31;;;;;;;3.10;1.60;;;6.10;99.90;;;;;;5059211;28;20223;-47
2022/02/23 03:50:59;;;;;;;6.35;2.15;;;5.90;99.90;;;;;;5059409;28;20265;-50
2022/02/23 03:53:26;;;;;;;12.50;3.83;;;5.90;99.90;;;;;;5059289;28;20354;-48
2022/02/23 03:55:54;;;;;;;9.57;1.83;;;5.90;99.90;;;;;;5059635;28;20317;-48
2022/02/23 03:58:21;;;;;;;6.03;2.83;;;6.00;99.90;;;;;;5059242;28;20199;-52
2022/02/23 04:00:48;;;;;;;3.25;1.77;;;6.00;99.90;;;;;;5059394;28;20238;-46
2022/02/23 04:03:16;;;;;;;3.35;1.80;;;6.00;99.90;;;;;;5059083;28;20226;-53
2022/02/23 04:05:44;;;;;;;2.88;1.30;;;6.10;99.90;;;;;;5059429;28;20541;-45
2022/02/23 04:08:11;;;;;;;11.02;1.98;;;6.10;99.90;;;;;;5057363;28;20230;-49
2022/02/23 04:10:38;;;;;;;12.07;2.65;;;6.10;99.90;;;;;;5059260;28;20409;-46
2022/02/23 04:13:05;;;;;;;4.40;1.80;;;6.10;99.90;;;;;;5059281;28;20518;-47
2022/02/23 04:15:33;;;;;;;2.67;1.95;;;6.10;99.90;;;;;;5058925;28;20242;-49
2022/02/23 04:18:00;;;;;;;14.75;2.10;;;6.20;99.90;;;;;;5058969;28;20261;-51
2022/02/23 04:20:29;;;;;;;3.65;1.45;;;6.20;99.90;;;;;;5058282;28;20264;-46
2022/02/23 04:22:56;;;;;;;9.38;2.22;;;6.10;99.90;;;;;;5059739;28;20397;-44
2022/02/23 04:25:24;;;;;;;1.35;1.25;;;6.10;99.90;;;;;;5058884;28;20416;-45
2022/02/23 04:27:52;;;;;;;5.45;1.52;;;6.10;99.90;;;;;;5059998;28;20249;-48
2022/02/23 04:30:19;;;;;;;2.45;1.40;;;6.10;99.90;;;;;;5059546;28;20276;-45
2022/02/23 04:32:49;;;;;;;5.75;2.08;;;6.10;99.90;;;;;;5059590;28;20199;-49
2022/02/23 04:35:16;;;;;;;4.38;1.63;;;6.10;99.90;;;;;;5059316;28;20270;-53
2022/02/23 04:37:43;;;;;;;2.30;1.60;;;6.00;99.90;;;;;;5059189;28;20345;-47
2022/02/23 04:40:12;;;;;;;8.38;2.20;;;6.00;99.90;;;;;;5059133;28;20272;-46
2022/02/23 04:42:39;;;;;;;8.77;1.85;;;6.00;99.90;;;;;;5059233;28;20270;-49
2022/02/23 04:45:07;;;;;;;4.85;1.65;;;6.00;99.90;;;;;;5059316;28;20210;-46
2022/02/23 04:47:34;;;;;;;3.80;1.80;;;6.00;99.90;;;;;;5059689;28;20466;-47
2022/02/23 04:50:02;;;;;;;8.35;2.22;;;6.00;99.90;;;;;;5059463;28;20195;-49
2022/02/23 04:52:29;;;;;;;2.35;1.75;;;6.00;99.90;;;;;;5059056;28;20218;-50
2022/02/23 04:54:57;;;;;;;10.88;2.95;;;6.10;99.90;;;;;;5059327;28;20245;-51
2022/02/23 04:57:24;;;;;;;11.95;2.13;;;6.00;99.90;;;;;;5058679;28;20203;-46
2022/02/23 04:59:52;;;;;;;16.80;2.08;;;6.00;99.90;;;;;;5059645;28;20203;-51
2022/02/23 05:02:19;;;;;;;6.40;2.22;;;5.80;99.90;;;;;;5058578;28;20227;-48
2022/02/23 05:04:47;;;;;;;3.72;1.35;;;5.80;99.90;;;;;;5059016;28;20324;-45
2022/02/23 05:07:18;;;;;;;4.88;1.00;;;5.80;99.90;;;;;;5059115;28;20541;-52
2022/02/23 05:09:45;;;;;;;5.88;2.03;;;5.80;99.90;;;;;;5059034;28;20532;-45
2022/02/23 05:12:13;;;;;;;2.80;1.00;;;5.80;99.90;;;;;;5059322;28;20545;-46
2022/02/23 05:14:40;;;;;;;3.80;1.30;;;5.80;99.90;;;;;;5060529;28;20213;-50
2022/02/23 05:17:08;;;;;;;2.50;1.60;;;5.80;99.90;;;;;;5064246;28;20196;-54
2022/02/23 05:19:35;;;;;;;10.63;3.38;;;5.80;99.90;;;;;;5066567;28;20206;-46
2022/02/23 05:22:05;;;;;;;6.85;3.13;;;5.80;99.90;;;;;;5061286;28;20571;-53
2022/02/23 05:24:33;;;;;;;6.50;1.92;;;5.70;99.90;;;;;;5051097;28;20211;-48
2022/02/23 05:27:01;;;;;;;5.15;1.90;;;5.70;99.90;;;;;;5057652;28;20203;-50
2022/02/23 05:29:32;;;;;;;6.95;2.15;;;5.60;99.90;;;;;;5049124;28;20251;-51
2022/02/23 05:32:00;;;;;;;4.65;1.55;;;5.50;99.90;;;;;;5058753;28;20254;-51
2022/02/23 05:34:27;;;;;;;4.03;1.50;;;5.40;99.90;;;;;;5062953;28;20206;-48
2022/02/23 05:36:55;;;;;;;5.68;2.28;;;5.30;99.90;;;;;;5062556;28;20268;-52
2022/02/23 05:39:22;;;;;;;8.57;2.38;;;5.30;99.90;;;;;;5062769;28;20262;-53
2022/02/23 05:41:50;;;;;;;9.27;2.25;;;5.10;99.90;;;;;;5062525;28;20219;-44
2022/02/23 05:44:17;;;;;;;6.07;3.30;;;5.00;99.90;;;;;;5062723;28;20205;-52
2022/02/23 05:46:44;;;;;;;7.57;1.95;;;5.00;99.90;;;;;;5062134;28;20205;-49
2022/02/23 05:49:12;;;;;;;12.98;3.63;;;5.10;99.90;;;;;;5062596;28;20382;-48
2022/02/23 05:51:43;;;;;;;5.20;2.28;;;5.10;99.90;;;;;;5062411;28;20219;-52
2022/02/23 05:54:11;;;;;;;8.80;2.30;;;5.20;99.90;;;;;;5062055;28;20199;-48
2022/02/23 05:56:39;;;;;;;3.80;1.67;;;5.20;99.90;;;;;;5062381;28;20269;-48
2022/02/23 05:59:06;;;;;;;11.65;3.60;;;5.10;99.90;;;;;;5062133;28;20289;-45
2022/02/23 06:01:34;;;;;;;8.98;2.65;;;5.20;99.90;;;;;;5062247;28;20238;-45
2022/02/23 06:04:03;;;;;;;12.05;2.42;;;5.10;99.90;;;;;;5060346;28;20199;-47
2022/02/23 06:06:30;;;;;;;8.68;1.98;;;5.20;99.90;;;;;;5056782;28;20211;-47
2022/02/23 06:08:58;;;;;;;4.63;2.10;;;5.30;99.90;;;;;;5061725;28;20551;-44
2022/02/23 06:11:25;;;;;;;7.03;2.05;;;5.30;99.90;;;;;;5056883;28;20224;-44
2022/02/23 06:13:53;;;;;;;5.07;2.05;;;5.20;99.90;;;;;;5059274;28;20198;-44
2022/02/23 06:16:22;;;;;;;4.78;1.88;;;5.10;99.90;;;;;;5061462;28;20376;-45
2022/02/23 06:18:51;;;;;;;5.25;2.75;;;5.10;99.90;;;;;;5062330;28;20518;-51
2022/02/23 06:21:19;;;;;;;12.93;2.30;;;5.10;99.90;;;;;;5062711;28;20537;-46
2022/02/23 06:23:46;;;;;;;5.40;2.55;;;5.10;99.90;;;;;;5068582;28;20195;-51
2022/02/23 06:26:14;;;;;;;9.90;3.17;;;5.30;99.90;;;;;;5066808;28;20210;-48
2022/02/23 06:28:42;;;;;;;17.30;2.72;;;5.40;99.90;;;;;;5061669;28;20220;-45
2022/02/23 06:31:09;;;;;;;3.50;2.42;;;5.50;99.90;;;;;;5061593;28;20450;-48
2022/02/23 06:33:41;;;;;;;3.40;2.25;;;5.50;99.90;;;;;;5061823;28;20202;-51
2022/02/23 06:36:10;;;;;;;2.63;1.58;;;5.50;99.90;;;;;;5061037;28;20196;-48
2022/02/23 06:38:41;;;;;;;11.82;4.10;;;5.70;99.90;;;;;;5061346;28;20218;-46
2022/02/23 06:41:13;;;;;;;7.03;2.17;;;5.70;99.90;;;;;;5060924;28;20272;-46
2022/02/23 06:43:44;;;;;;;6.78;2.90;;;5.70;99.90;;;;;;5060958;28;20203;-47
2022/02/23 06:46:13;;;;;;;6.78;2.55;;;5.70;99.90;;;;;;5061221;28;20199;-46
2022/02/23 06:48:46;;;;;;;6.47;1.90;;;5.60;99.90;;;;;;5061040;28;20254;-47
2022/02/23 06:51:18;;;;;;;6.50;2.20;;;5.60;99.90;;;;;;5061133;28;20223;-43
2022/02/23 06:53:49;;;;;;;4.70;1.80;;;5.60;99.90;;;;;;5060914;28;20411;-46
2022/02/23 06:56:17;;;;;;;5.63;2.45;;;5.70;99.90;;;;;;5061459;28;20369;-47
2022/02/23 06:58:48;;;;;;;9.50;2.90;;;6.00;99.90;;;;;;5060834;28;20211;-48
2022/02/23 07:01:18;;;;;;;4.00;1.33;;;6.30;99.90;;;;;;5060550;28;20284;-47
2022/02/23 07:03:47;;;;;;;5.70;2.03;;;6.50;99.90;;;;;;5060687;28;20222;-48
2022/02/23 07:06:15;;;;;;;4.55;1.58;;;6.60;99.90;;;;;;5060781;28;20283;-47
2022/02/23 07:08:45;;;;;;;5.22;2.40;;;6.50;99.90;;;;;;5060674;28;20368;-45
2022/02/23 07:11:13;;;;;;;8.40;2.10;;;6.40;99.90;;;;;;5060613;28;20273;-46
2022/02/23 07:13:40;;;;;;;5.60;1.58;;;6.20;99.90;;;;;;5060334;28;20199;-48
2022/02/23 07:16:08;;;;;;;5.47;2.15;;;6.20;99.90;;;;;;5060815;28;20210;-50
2022/02/23 07:18:35;;;;;;;10.05;2.58;;;6.40;99.90;;;;;;5060877;28;20203;-46
2022/02/23 07:21:02;;;;;;;5.38;2.25;;;6.60;99.90;;;;;;5060704;28;20223;-51
2022/02/23 07:23:29;;;;;;;3.92;1.27;;;6.70;99.90;;;;;;5060872;28;20206;-45
2022/02/23 07:25:57;;;;;;;5.38;2.20;;;6.80;99.90;;;;;;5060520;28;20537;-51
2022/02/23 07:28:24;;;;;;;6.40;2.63;;;7.20;99.90;;;;;;5060262;28;20231;-46
2022/02/23 07:31:08;;;;;;;6.55;2.90;;;7.40;99.90;;;;;;5060385;28;20232;-49
2022/02/23 07:33:38;;;;;;;6.45;2.42;;;7.20;99.90;;;;;;5060709;28;20195;-50
2022/02/23 07:36:06;;;;;;;9.68;2.97;;;7.00;99.90;;;;;;5060028;28;20486;-46
2022/02/23 07:38:36;;;;;;;6.47;2.05;;;6.90;99.90;;;;;;5060180;28;20204;-44
2022/02/23 07:41:07;;;;;;;4.57;2.28;;;6.80;99.90;;;;;;5060423;28;20514;-46
2022/02/23 07:43:54;;;;;;;2.45;2.17;;;6.80;99.90;;;;;;5060608;28;20406;-49
2022/02/23 07:46:22;;;;;;;6.53;2.45;;;6.80;99.90;;;;;;5059979;28;20274;-47
2022/02/23 07:48:55;;;;;;;9.45;2.17;;;7.30;99.90;;;;;;5060405;28;20234;-49
2022/02/23 07:51:24;;;;;;;8.25;2.65;;;7.90;99.90;;;;;;5060050;28;20374;-49
2022/02/23 07:53:54;;;;;;;3.72;2.08;;;7.70;99.90;;;;;;5060020;28;20390;-47
2022/02/23 07:56:22;;;;;;;6.38;2.13;;;7.30;99.90;;;;;;5059502;28;20187;-48
2022/02/23 07:58:51;;;;;;;3.90;2.03;;;7.30;99.90;;;;;;5059732;28;20301;-47
2022/02/23 08:01:40;;;;;;;10.02;2.00;;;7.40;99.90;;;;;;5059678;28;20244;-51
2022/02/23 08:04:10;;;;;;;11.93;3.17;;;7.50;99.90;;;;;;5059453;28;20204;-49
2022/02/23 08:06:39;;;;;;;11.38;3.80;;;7.90;99.90;;;;;;5059788;28;20518;-45
2022/02/23 08:09:10;;;;;;;9.65;2.95;;;8.00;99.90;;;;;;5059475;28;20234;-49
2022/02/23 08:11:39;;;;;;;3.25;2.83;;;8.40;99.90;;;;;;5059575;28;20441;-47
2022/02/23 08:14:07;;;;;;;4.63;1.80;;;9.40;99.90;;;;;;5059419;28;20266;-50
2022/02/23 08:19:31;;;;;;;3.50;1.70;;;10.50;99.90;;;;;;5059310;28;20210;-49
2022/02/23 08:22:12;;;;;;;6.88;3.42;;;10.90;99.90;;;;;;5059687;28;20235;-52
2022/02/23 08:24:44;;;;;;;5.55;2.85;;;11.00;99.90;;;;;;5059787;28;20199;-47
2022/02/23 08:27:16;;;;;;;2.83;2.13;;;11.00;99.90;;;;;;5060158;28;20228;-49
2022/02/23 08:29:44;;;;;;;4.35;2.10;;;10.80;99.90;;;;;;5059654;28;20238;-53
2022/02/23 08:32:13;;;;;;;6.38;2.03;;;10.70;99.90;;;;;;5060244;28;20293;-49
2022/02/23 08:34:43;;;;;;;7.07;2.25;;;10.10;99.90;;;;;;5060662;28;20199;-50
2022/02/23 08:37:11;;;;;;;3.70;2.83;;;9.90;99.90;;;;;;5059734;28;20237;-51
2022/02/23 08:39:39;;;;;;;3.15;1.58;;;9.80;99.90;;;;;;5059816;28;20316;-49
2022/02/23 08:42:10;;;;;;;2.38;1.70;;;9.90;99.90;;;;;;5058935;28;20260;-45
2022/02/23 08:44:37;;;;;;;5.88;2.08;;;10.20;99.90;;;;;;5059566;28;20210;-46
2022/02/23 08:47:05;;;;;;;8.30;3.53;;;10.50;99.90;;;;;;5059165;28;20521;-50
2022/02/23 08:49:33;;;;;;;9.85;1.90;;;10.70;99.90;;;;;;5059282;28;20233;-45
2022/02/23 08:52:01;;;;;;;5.22;2.05;;;10.10;99.90;;;;;;5059456;28;20476;-53
2022/02/23 08:54:28;;;;;;;2.22;1.80;;;9.70;99.90;;;;;;5059430;28;20351;-47
2022/02/23 08:56:57;;;;;;;3.35;1.70;;;9.40;99.90;;;;;;5058848;28;20198;-45
2022/02/23 08:59:24;;;;;;;7.22;2.47;;;9.80;99.90;;;;;;5059022;28;20355;-48
2022/02/23 09:01:54;;;;;;;2.67;1.63;;;9.80;99.90;;;;;;5059370;28;20548;-48
2022/02/23 09:04:22;;;;;;;1.90;1.75;;;10.10;99.90;;;;;;5058892;28;20570;-51
2022/02/23 09:06:49;;;;;;;5.68;1.63;;;10.90;99.90;;;;;;5061064;28;20272;-48
2022/02/23 09:09:16;;;;;;;7.05;2.17;;;11.60;99.90;;;;;;5062876;28;20222;-45
2022/02/23 09:11:44;;;;;;;8.10;1.92;;;12.20;99.90;;;;;;5063089;28;20218;-49
2022/02/23 09:14:11;;;;;;;4.70;2.92;;;12.40;99.90;;;;;;5063222;28;20217;-48
2022/02/23 09:16:39;;;;;;;6.70;2.15;;;12.60;99.90;;;;;;5063338;28;20195;-49
2022/02/23 09:19:07;;;;;;;11.65;4.22;;;11.70;99.90;;;;;;5062629;28;20574;-53
2022/02/23 09:21:35;;;;;;;3.17;2.25;;;10.60;99.90;;;;;;5063389;28;20268;-49
2022/02/23 09:24:04;;;;;;;6.25;2.15;;;10.00;99.90;;;;;;5063190;28;20234;-47
2022/02/23 09:26:33;;;;;;;4.78;2.72;;;9.70;99.90;;;;;;5063144;28;20215;-49
2022/02/23 09:29:00;;;;;;;8.38;2.08;;;9.40;99.90;;;;;;5062731;28;20385;-45
2022/02/23 09:31:27;;;;;;;11.13;3.58;;;9.30;99.90;;;;;;5062872;28;20452;-50
2022/02/23 09:33:54;;;;;;;6.13;2.20;;;9.30;99.90;;;;;;5062717;28;20506;-48
2022/02/23 09:36:21;;;;;;;6.28;2.25;;;9.40;99.90;;;;;;5062356;28;20209;-48
2022/02/23 09:38:50;;;;;;;3.25;1.48;;;9.40;99.90;;;;;;5063421;28;20272;-48
2022/02/23 09:41:20;;;;;;;6.43;2.40;;;9.50;99.90;;;;;;5065318;28;20363;-50
2022/02/23 09:43:52;;;;;;;3.67;1.70;;;9.60;99.90;;;;;;5064909;28;20463;-51
2022/02/23 09:46:23;;;;;;;5.45;1.45;;;9.50;99.90;;;;;;5065701;28;20564;-49
2022/02/23 09:48:52;;;;;;;2.85;1.80;;;9.50;99.90;;;;;;5063231;28;20226;-51
2022/02/23 09:51:20;;;;;;;3.00;1.60;;;9.40;99.90;;;;;;5062170;28;20247;-46
2022/02/23 09:53:55;;;;;;;10.18;2.17;;;9.50;99.90;;;;;;5062673;28;20205;-45
2022/02/23 09:56:23;;;;;;;6.70;2.30;;;9.60;99.90;;;;;;5061908;28;20272;-46
2022/02/23 09:58:52;;;;;;;4.82;2.45;;;9.80;99.90;;;;;;5062834;28;20254;-48
2022/02/23 10:01:23;;;;;;;5.95;2.67;;;10.00;99.90;;;;;;5061952;28;20229;-49
2022/02/23 10:03:52;;;;;;;4.32;1.58;;;10.30;99.90;;;;;;5062593;28;20247;-50
2022/02/23 10:06:27;;;;;;;5.90;2.58;;;10.40;99.90;;;;;;5062187;28;20204;-52
2022/02/23 10:09:06;;;;;;;3.67;1.55;;;10.40;99.90;;;;;;5061649;28;20233;-47
2022/02/23 10:11:34;;;;;;;2.10;1.40;;;10.20;99.90;;;;;;5062094;28;20230;-50
2022/02/23 10:14:02;;;;;;;6.80;2.15;;;10.10;99.90;;;;;;5061673;28;20228;-48
2022/02/23 10:16:39;;;;;;;3.88;2.20;;;10.10;99.90;;;;;;5062420;28;20196;-45
2022/02/23 10:19:12;;;;;;;5.18;2.58;;;10.10;99.90;;;;;;5060629;28;20223;-50
2022/02/23 10:21:56;;;;;;;4.20;2.90;;;10.10;99.90;;;;;;5062286;28;20225;-46
2022/02/23 10:24:38;;;;;;;5.35;2.35;;;9.80;99.90;;;;;;5061509;28;20213;-47
2022/02/23 10:27:11;;;;;;;2.80;2.05;;;9.50;99.90;;;;;;5062145;28;20277;-48
2022/02/23 10:29:45;;;;;;;4.32;2.20;;;9.50;99.90;;;;;;5061260;28;20229;-51
2022/02/23 10:32:14;;;;;;;8.32;3.33;;;9.90;99.90;;;;;;5061256;28;20238;-48
2022/02/23 10:34:46;;;;;;;13.70;3.20;;;9.80;99.90;;;;;;5061373;28;20227;-46
2022/02/23 10:37:23;;;;;;;4.93;2.22;;;9.50;99.90;;;;;;5062037;28;20205;-47
2022/02/23 10:40:00;;;;;;;7.20;2.53;;;9.60;99.90;;;;;;5061360;28;20204;-52
2022/02/23 10:42:32;;;;;;;8.65;2.92;;;9.50;99.90;;;;;;5061356;28;20220;-45
2022/02/23 10:45:00;;;;;;;12.55;2.78;;;9.30;99.90;;;;;;5061381;28;20212;-50
2022/02/23 10:47:37;;;;;;;5.35;2.47;;;9.10;99.90;;;;;;5061414;28;20207;-44
2022/02/23 10:50:10;;;;;;;7.13;2.75;;;9.00;99.90;;;;;;5060802;28;20425;-51
2022/02/23 10:52:40;;;;;;;10.05;2.20;;;9.10;99.90;;;;;;5061245;28;20201;-50
2022/02/23 10:55:13;;;;;;;12.57;2.75;;;9.00;99.90;;;;;;5061186;28;20205;-47
2022/02/23 10:57:57;;;;;;;6.22;2.78;;;8.90;99.90;;;;;;5061369;28;20383;-46
2022/02/23 11:00:30;;;;;;;9.88;2.25;;;8.70;99.90;;;;;;5061021;28;20233;-48
2022/02/23 11:02:57;;;;;;;4.75;2.80;;;8.70;99.90;;;;;;5061082;28;20209;-51
2022/02/23 11:05:26;;;;;;;5.95;1.95;;;8.90;99.90;;;;;;5060881;28;20395;-44
2022/02/23 11:07:55;;;;;;;4.28;1.80;;;9.10;99.90;;;;;;5061086;28;20266;-47
2022/02/23 11:10:25;;;;;;;7.03;2.10;;;9.10;99.90;;;;;;5060909;28;20626;-45
2022/02/23 11:12:56;;;;;;;8.98;2.90;;;9.20;99.90;;;;;;5060619;28;20513;-48
2022/02/23 11:15:26;;;;;;;2.95;1.77;;;9.20;99.90;;;;;;5060925;28;20205;-45
2022/02/23 11:17:56;;;;;;;4.85;2.58;;;9.30;99.90;;;;;;5060994;28;20435;-46
2022/02/23 11:20:30;;;;;;;5.95;2.35;;;9.40;99.90;;;;;;5060871;28;20226;-50
2022/02/23 11:23:03;;;;;;;6.65;3.28;;;9.30;99.90;;;;;;5061382;28;20299;-46
2022/02/23 11:25:35;;;;;;;6.13;1.80;;;9.00;99.90;;;;;;5061009;28;20213;-44
2022/02/23 11:28:25;;;;;;;11.65;2.10;;;9.00;99.90;;;;;;5060396;28;20200;-49
2022/02/23 11:30:56;;;;;;;10.30;2.95;;;9.20;99.90;;;;;;5060759;28;20414;-46
2022/02/23 11:34:02;;;;;;;4.25;1.92;;;9.30;99.90;;;;;;5060479;28;20566;-50
2022/02/23 11:36:42;;;;;;;4.85;1.98;;;9.30;99.90;;;;;;5060368;28;20273;-47
2022/02/23 11:39:19;;;;;;;6.93;1.65;;;9.30;99.90;;;;;;5060057;28;20200;-48
2022/02/23 11:41:54;;;;;;;5.03;2.20;;;9.40;99.90;;;;;;5060308;28;20248;-48
2022/02/23 11:44:26;;;;;;;7.13;2.55;;;9.60;99.90;;;;;;5059451;28;20612;-46
2022/02/23 11:50:08;;;;;;;3.45;2.10;;;9.80;99.90;;;;;;5060386;28;20225;-47
2022/02/23 11:52:53;;;;;;;3.90;1.92;;;10.00;99.90;;;;;;5060317;28;20195;-50
2022/02/23 11:59:31;;;;;;;4.03;1.88;;;10.10;99.90;;;;;;5060713;28;20256;-48
2022/02/23 12:02:16;;;;;;;1.95;1.63;;;9.90;99.90;;;;;;5059619;28;20255;-53
2022/02/23 12:04:49;;;;;;;3.90;2.40;;;9.80;99.90;;;;;;5060012;28;20513;-46
2022/02/23 12:07:17;;;;;;;4.32;1.67;;;9.90;99.90;;;;;;5059963;28;20251;-47
2022/02/23 12:09:46;;;;;;;3.13;1.50;;;9.90;99.90;;;;;;5059941;28;20541;-47
2022/02/23 12:12:51;;;;;;;4.82;1.80;;;9.90;99.90;;;;;;5059860;28;20454;-51
2022/02/23 12:15:40;;;;;;;5.10;1.85;;;9.70;99.90;;;;;;5059876;28;20197;-48
2022/02/23 12:18:11;;;;;;;6.20;2.25;;;9.80;99.90;;;;;;5059203;28;20224;-55
2022/02/23 12:20:38;;;;;;;2.20;1.80;;;10.00;99.90;;;;;;5059995;28;20427;-45
2022/02/23 12:23:06;;;;;;;4.18;1.42;;;9.80;99.90;;;;;;5060292;28;20286;-47
2022/02/23 12:26:05;;;;;;;9.88;2.50;;;9.50;99.90;;;;;;5061225;28;20208;-52
2022/02/23 12:28:36;;;;;;;2.05;1.13;;;9.20;99.90;;;;;;5059953;28;20500;-49
2022/02/23 12:31:04;;;;;;;3.42;1.92;;;9.20;99.90;;;;;;5060038;28;20294;-47
2022/02/23 12:33:33;;;;;;;9.82;2.17;;;9.20;99.90;;;;;;5059747;28;20232;-46
2022/02/23 12:36:56;;;;;;;1.98;1.10;;;9.30;99.90;;;;;;5059723;28;20197;-49
2022/02/23 12:39:27;;;;;;;4.93;1.48;;;9.50;99.90;;;;;;4978539;28;20241;-47
2022/02/23 12:41:57;;;;;;;2.33;1.15;;;9.70;99.90;;;;;;4978455;28;20224;-45
2022/02/23 12:44:32;;;;;;;2.13;1.60;;;10.00;99.90;;;;;;5022084;28;20247;-49
2022/02/23 12:47:02;;;;;;;2.30;1.25;;;10.10;99.90;;;;;;5059971;28;20225;-47
2022/02/23 12:49:30;;;;;;;2.65;1.50;;;10.30;99.90;;;;;;5059543;28;20614;-47
2022/02/23 12:51:58;;;;;;;11.18;2.50;;;10.30;99.90;;;;;;5059492;28;20547;-52
2022/02/23 12:54:27;;;;;;;1.48;1.38;;;10.50;99.90;;;;;;5059571;28;20206;-46
2022/02/23 12:56:57;;;;;;;5.25;2.05;;;10.40;99.90;;;;;;5059865;28;20199;-47
2022/02/23 12:59:26;;;;;;;3.20;1.80;;;10.30;99.90;;;;;;5059325;28;20249;-53
2022/02/23 13:02:06;;;;;;;7.15;1.88;;;10.40;99.90;;;;;;5061200;28;20234;-47
2022/02/23 13:04:36;;;;;;;4.40;2.10;;;10.40;99.90;;;;;;5064191;28;20200;-50
2022/02/23 13:07:16;;;;;;;4.15;2.40;;;10.30;99.90;;;;;;5061075;28;20208;-48
2022/02/23 13:09:45;;;;;;;4.63;2.00;;;10.30;99.90;;;;;;5059106;28;20232;-49
2022/02/23 13:12:15;;;;;;;12.00;1.63;;;10.30;99.90;;;;;;5059008;28;20523;-51
2022/02/23 13:14:47;;;;;;;2.00;1.40;;;10.10;99.90;;;;;;5059406;28;20209;-52
2022/02/23 13:17:19;;;;;;;2.78;1.30;;;10.00;99.90;;;;;;5058927;28;20202;-46
2022/02/23 13:19:47;;;;;;;2.42;1.52;;;9.90;99.90;;;;;;5059759;28;20201;-47